Time;durP1;ratioP1;P1;durP2;ratioP2;P2;SDS_P1;SDS_P2;PMS_P1;PMS_P2;Temp;Humidity;BMP_temperature;BMP_pressure;BME280_temperature;BME280_humidity;BME280_pressure;Samples;Min_cycle;Max_cycle;Signal;HPM_P1;HPM_P2
2024/03/11 00:00:51;;;;;;;;;;;;;;;;;;5047013;28;20369;-65
2024/03/11 00:03:17;;;;;;;;;;;;;;;;;;5043555;28;19920;-65
2024/03/11 00:05:44;;;;;;;;;;;;;;;;;;5048044;28;20006;-65
2024/03/11 00:08:16;;;;;;;;;;;;;;;;;;5050965;28;19935;-65
2024/03/11 00:10:41;;;;;;;;;;;;;;;;;;5043649;28;19921;-65
2024/03/11 00:13:10;;;;;;;;;;;;;;;;;;5042714;28;20349;-64
2024/03/11 00:15:36;;;;;;;;;;;;;;;;;;5044357;28;20370;-65
2024/03/11 00:18:02;;;;;;;;;;;;;;;;;;5045588;28;19924;-64
2024/03/11 00:20:28;;;;;;;;;;;;;;;;;;5047505;28;19928;-65
2024/03/11 00:22:54;;;;;;;;;;;;;;;;;;5050592;28;19929;-64
2024/03/11 00:25:20;;;;;;;;;;;;;;;;;;5045412;28;19932;-65
2024/03/11 00:27:46;;;;;;;;;;;;;;;;;;5047601;28;20274;-64
2024/03/11 00:30:12;;;;;;;;;;;;;;;;;;5045095;28;20329;-64
2024/03/11 00:32:38;;;;;;;;;;;;;;;;;;5045299;28;20343;-65
2024/03/11 00:35:06;;;;;;;;;;;;;;;;;;5043771;28;20108;-65
2024/03/11 00:37:32;;;;;;;;;;;;;;;;;;5066233;28;19925;-65
2024/03/11 00:39:58;;;;;;;;;;;;;;;;;;5046996;28;19921;-65
2024/03/11 00:42:24;;;;;;;;;;;;;;;;;;5047640;28;20473;-65
2024/03/11 00:44:50;;;;;;;;;;;;;;;;;;5045394;28;19927;-65
2024/03/11 00:47:18;;;;;;;;;;;;;;;;;;5046958;28;19925;-65
2024/03/11 00:49:44;;;;;;;;;;;;;;;;;;5043611;28;19929;-65
2024/03/11 00:52:10;;;;;;;;;;;;;;;;;;5049209;28;20333;-64
2024/03/11 00:54:36;;;;;;;;;;;;;;;;;;5048883;28;19928;-64
2024/03/11 00:57:02;;;;;;;;;;;;;;;;;;5044027;28;19925;-65
2024/03/11 00:59:28;;;;;;;;;;;;;;;;;;5049660;28;19986;-64
2024/03/11 01:01:54;;;;;;;;;;;;;;;;;;5045100;28;20398;-64
2024/03/11 01:04:21;;;;;;;;;;;;;;;;;;5046964;28;19921;-65
2024/03/11 01:06:47;;;;;;;;;;;;;;;;;;5046657;28;19931;-65
2024/03/11 01:09:12;;;;;;;;;;;;;;;;;;5045539;28;19924;-65
2024/03/11 01:11:38;;;;;;;;;;;;;;;;;;5049999;28;20004;-65
2024/03/11 01:14:04;;;;;;;;;;;;;;;;;;5050207;28;20286;-65
2024/03/11 01:16:30;;;;;;;;;;;;;;;;;;5048730;28;19921;-65
2024/03/11 01:18:57;;;;;;;;;;;;;;;;;;5043006;28;19921;-65
2024/03/11 01:21:23;;;;;;;;;;;;;;;;;;5041422;28;19931;-65
2024/03/11 01:23:49;;;;;;;;;;;;;;;;;;5044821;28;20383;-65
2024/03/11 01:26:16;;;;;;;;;;;;;;;;;;5049293;28;19924;-65
2024/03/11 01:28:42;;;;;;;;;;;;;;;;;;5048456;28;19932;-65
2024/03/11 01:31:10;;;;;;;;;;;;;;;;;;5045172;28;19921;-65
2024/03/11 01:33:36;;;;;;;;;;;;;;;;;;5047344;28;20007;-65
2024/03/11 01:36:02;;;;;;;;;;;;;;;;;;5042663;28;20368;-65
2024/03/11 01:38:28;;;;;;;;;;;;;;;;;;5047592;28;19925;-65
2024/03/11 01:40:54;;;;;;;;;;;;;;;;;;5043071;28;20011;-65
2024/03/11 01:43:19;;;;;;;;;;;;;;;;;;5046953;28;20070;-65
2024/03/11 01:45:46;;;;;;;;;;;;;;;;;;5040216;28;20020;-65
2024/03/11 01:48:11;;;;;;;;;;;;;;;;;;5050038;28;19935;-65
2024/03/11 01:50:38;;;;;;;;;;;;;;;;;;5044799;28;20375;-65
2024/03/11 01:53:04;;;;;;;;;;;;;;;;;;5043164;28;19921;-65
2024/03/11 01:55:29;;;;;;;;;;;;;;;;;;5060589;28;19968;-65
2024/03/11 01:57:56;;;;;;;;;;;;;;;;;;5046469;28;20786;-65
2024/03/11 02:00:22;;;;;;;;;;;;;;;;;;5039132;28;19983;-65
2024/03/11 02:02:48;;;;;;;;;;;;;;;;;;5047301;28;19972;-65
2024/03/11 02:05:14;;;;;;;;;;;;;;;;;;5046887;28;19925;-65
2024/03/11 02:07:40;;;;;;;;;;;;;;;;;;5024713;28;19925;-65
2024/03/11 02:10:07;;;;;;;;;;;;;;;;;;5047343;28;19936;-65
2024/03/11 02:12:35;;;;;;;;;;;;;;;;;;5047486;28;19921;-64
2024/03/11 02:15:00;;;;;;;;;;;;;;;;;;5047469;28;19932;-64
2024/03/11 02:17:27;;;;;;;;;;;;;;;;;;5046269;28;19929;-64
2024/03/11 02:19:53;;;;;;;;;;;;;;;;;;5044680;28;19959;-64
2024/03/11 02:22:19;;;;;;;;;;;;;;;;;;5039713;28;19963;-65
2024/03/11 02:24:45;;;;;;;;;;;;;;;;;;5045780;28;19924;-65
2024/03/11 02:27:12;;;;;;;;;;;;;;;;;;5042920;28;19921;-64
2024/03/11 02:29:38;;;;;;;;;;;;;;;;;;5047817;28;20258;-65
2024/03/11 02:32:04;;;;;;;;;;;;;;;;;;5048289;28;19929;-65
2024/03/11 02:34:31;;;;;;;;;;;;;;;;;;5045562;28;19932;-65
2024/03/11 02:36:57;;;;;;;;;;;;;;;;;;5042849;28;20271;-65
2024/03/11 02:39:27;;;;;;;;;;;;;;;;;;5049549;28;19928;-65
2024/03/11 02:41:53;;;;;;;;;;;;;;;;;;5048351;28;19929;-65
2024/03/11 02:44:19;;;;;;;;;;;;;;;;;;5045376;28;19931;-65
2024/03/11 02:46:45;;;;;;;;;;;;;;;;;;5042378;28;19931;-65
2024/03/11 02:49:11;;;;;;;;;;;;;;;;;;5043338;28;19933;-64
2024/03/11 02:51:42;;;;;;;;;;;;;;;;;;5048224;28;19924;-65
2024/03/11 02:54:08;;;;;;;;;;;;;;;;;;5042105;28;19947;-65
2024/03/11 02:56:34;;;;;;;;;;;;;;;;;;5040037;28;20015;-65
2024/03/11 02:59:00;;;;;;;;;;;;;;;;;;5052693;28;20434;-65
2024/03/11 03:01:27;;;;;;;;;;;;;;;;;;5054694;28;20408;-65
2024/03/11 03:03:53;;;;;;;;;;;;;;;;;;5049565;28;19928;-65
2024/03/11 03:06:19;;;;;;;;;;;;;;;;;;5050006;28;19960;-65
2024/03/11 03:08:45;;;;;;;;;;;;;;;;;;5048666;28;20259;-65
2024/03/11 03:11:11;;;;;;;;;;;;;;;;;;5048761;28;19925;-65
2024/03/11 03:13:36;;;;;;;;;;;;;;;;;;5050043;28;19924;-65
2024/03/11 03:16:02;;;;;;;;;;;;;;;;;;5051170;28;19925;-65
2024/03/11 03:18:28;;;;;;;;;;;;;;;;;;5048570;28;19971;-65
2024/03/11 03:20:55;;;;;;;;;;;;;;;;;;5044339;28;19921;-65
2024/03/11 03:23:21;;;;;;;;;;;;;;;;;;5054643;28;19925;-65
2024/03/11 03:25:47;;;;;;;;;;;;;;;;;;5054630;28;20270;-65
2024/03/11 03:28:13;;;;;;;;;;;;;;;;;;5051738;28;20290;-65
2024/03/11 03:30:39;;;;;;;;;;;;;;;;;;5049632;28;20355;-64
2024/03/11 03:33:05;;;;;;;;;;;;;;;;;;5049715;28;19929;-65
2024/03/11 03:35:31;;;;;;;;;;;;;;;;;;5045568;28;20390;-65
2024/03/11 03:37:57;;;;;;;;;;;;;;;;;;5050473;28;19927;-64
2024/03/11 03:40:23;;;;;;;;;;;;;;;;;;5052222;28;19931;-64
2024/03/11 03:42:48;;;;;;;;;;;;;;;;;;5052995;28;19932;-64
2024/03/11 03:45:15;;;;;;;;;;;;;;;;;;5048046;28;19926;-64
2024/03/11 03:47:41;;;;;;;;;;;;;;;;;;5058657;28;20843;-65
2024/03/11 03:50:10;;;;;;;;;;;;;;;;;;5054202;28;19928;-65
2024/03/11 03:52:36;;;;;;;;;;;;;;;;;;5051128;28;19936;-65
2024/03/11 03:55:02;;;;;;;;;;;;;;;;;;5065731;22;19923;-62
2024/03/11 03:57:28;;;;;;;;;;;;;;;;;;5050115;28;19925;-62
2024/03/11 03:59:55;;;;;;;;;;;;;;;;;;5049904;28;19924;-62
2024/03/11 04:02:22;;;;;;;;;;;;;;;;;;5049135;28;20385;-62
2024/03/11 04:04:48;;;;;;;;;;;;;;;;;;5050937;28;19963;-62
2024/03/11 04:07:14;;;;;;;;;;;;;;;;;;5051505;28;20563;-62
2024/03/11 04:09:40;;;;;;;;;;;;;;;;;;5052116;28;20039;-62
2024/03/11 04:12:06;;;;;;;;;;;;;;;;;;5049880;28;19932;-62
2024/03/11 04:14:32;;;;;;;;;;;;;;;;;;5049654;28;19921;-62
2024/03/11 04:16:58;;;;;;;;;;;;;;;;;;5052467;28;19921;-62
2024/03/11 04:19:25;;;;;;;;;;;;;;;;;;5053380;28;20378;-61
2024/03/11 04:21:53;;;;;;;;;;;;;;;;;;5053946;28;20358;-61
2024/03/11 04:24:20;;;;;;;;;;;;;;;;;;5053029;28;19952;-62
2024/03/11 04:26:47;;;;;;;;;;;;;;;;;;5051594;28;19979;-62
2024/03/11 04:29:13;;;;;;;;;;;;;;;;;;5049630;28;20296;-61
2024/03/11 04:31:41;;;;;;;;;;;;;;;;;;5048522;28;20520;-62
2024/03/11 04:34:07;;;;;;;;;;;;;;;;;;5051996;28;20369;-61
2024/03/11 04:36:33;;;;;;;;;;;;;;;;;;5054054;28;20016;-62
2024/03/11 04:39:04;;;;;;;;;;;;;;;;;;5053768;28;19921;-62
2024/03/11 04:41:30;;;;;;;;;;;;;;;;;;5054247;28;19929;-62
2024/03/11 04:43:57;;;;;;;;;;;;;;;;;;5053755;28;19925;-62
2024/03/11 04:46:23;;;;;;;;;;;;;;;;;;5051925;28;19925;-62
2024/03/11 04:48:49;;;;;;;;;;;;;;;;;;5046772;28;19928;-62
2024/03/11 04:51:15;;;;;;;;;;;;;;;;;;5050561;28;19931;-62
2024/03/11 04:53:41;;;;;;;;;;;;;;;;;;5051144;28;19928;-62
2024/03/11 04:56:07;;;;;;;;;;;;;;;;;;5051576;28;19924;-62
2024/03/11 04:58:34;;;;;;;;;;;;;;;;;;5051007;28;19924;-62
2024/03/11 05:01:00;;;;;;;;;;;;;;;;;;5051107;28;20393;-62
2024/03/11 05:03:26;;;;;;;;;;;;;;;;;;5051358;28;19925;-62
2024/03/11 05:05:52;;;;;;;;;;;;;;;;;;5053144;28;19925;-63
2024/03/11 05:08:19;;;;;;;;;;;;;;;;;;5053872;28;19921;-62
2024/03/11 05:10:45;;;;;;;;;;;;;;;;;;5053411;28;19925;-62
2024/03/11 05:13:11;;;;;;;;;;;;;;;;;;5053357;28;19986;-62
2024/03/11 05:15:37;;;;;;;;;;;;;;;;;;5052067;28;20385;-61
2024/03/11 05:18:04;;;;;;;;;;;;;;;;;;5052974;28;19974;-62
2024/03/11 05:20:30;;;;;;;;;;;;;;;;;;5050805;28;19921;-62
2024/03/11 05:22:56;;;;;;;;;;;;;;;;;;5052986;28;20411;-62
2024/03/11 05:25:22;;;;;;;;;;;;;;;;;;5049280;28;19925;-62
2024/03/11 05:27:49;;;;;;;;;;;;;;;;;;5053021;28;20393;-62
2024/03/11 05:30:15;;;;;;;;;;;;;;;;;;5049577;28;19921;-62
2024/03/11 05:32:41;;;;;;;;;;;;;;;;;;5050746;28;20037;-62
2024/03/11 05:35:06;;;;;;;;;;;;;;;;;;5045151;28;19920;-63
2024/03/11 05:37:33;;;;;;;;;;;;;;;;;;5051076;28;19921;-62
2024/03/11 05:40:05;;;;;;;;;;;;;;;;;;5047177;28;20275;-62
2024/03/11 05:42:31;;;;;;;;;;;;;;;;;;5052933;28;19928;-62
2024/03/11 05:44:58;;;;;;;;;;;;;;;;;;5052396;28;19921;-62
2024/03/11 05:47:25;;;;;;;;;;;;;;;;;;5045216;28;19932;-62
2024/03/11 05:49:51;;;;;;;;;;;;;;;;;;5051656;28;19927;-62
2024/03/11 05:52:20;;;;;;;;;;;;;;;;;;5048098;28;20012;-63
2024/03/11 05:54:50;;;;;;;;;;;;;;;;;;5049937;28;19929;-63
2024/03/11 05:57:22;;;;;;;;;;;;;;;;;;5051442;28;20721;-62
2024/03/11 05:59:48;;;;;;;;;;;;;;;;;;5048612;28;19928;-62
2024/03/11 06:02:14;;;;;;;;;;;;;;;;;;5050275;28;19921;-62
2024/03/11 06:04:40;;;;;;;;;;;;;;;;;;5043869;28;19920;-62
2024/03/11 06:07:06;;;;;;;;;;;;;;;;;;5044342;28;19929;-62
2024/03/11 06:09:32;;;;;;;;;;;;;;;;;;5050415;28;20366;-62
2024/03/11 06:11:59;;;;;;;;;;;;;;;;;;5033489;28;19921;-63
2024/03/11 06:14:26;;;;;;;;;;;;;;;;;;5043800;28;20297;-62
2024/03/11 06:16:52;;;;;;;;;;;;;;;;;;5050680;28;19921;-62
2024/03/11 06:19:18;;;;;;;;;;;;;;;;;;5050925;28;20423;-62
2024/03/11 06:21:44;;;;;;;;;;;;;;;;;;5049514;28;20023;-62
2024/03/11 06:24:10;;;;;;;;;;;;;;;;;;5050277;28;19921;-62
2024/03/11 06:26:37;;;;;;;;;;;;;;;;;;5047401;28;19935;-62
2024/03/11 06:29:03;;;;;;;;;;;;;;;;;;5051608;28;19944;-62
2024/03/11 06:31:29;;;;;;;;;;;;;;;;;;5050577;28;19921;-62
2024/03/11 06:33:58;;;;;;;;;;;;;;;;;;5046684;28;20334;-62
2024/03/11 06:36:24;;;;;;;;;;;;;;;;;;5052055;28;19920;-62
2024/03/11 06:38:53;;;;;;;;;;;;;;;;;;5051184;28;19928;-62
2024/03/11 06:41:19;;;;;;;;;;;;;;;;;;5032115;28;20530;-62
2024/03/11 06:43:45;;;;;;;;;;;;;;;;;;5051155;28;20455;-62
2024/03/11 06:46:11;;;;;;;;;;;;;;;;;;5049967;28;19951;-62
2024/03/11 06:48:36;;;;;;;;;;;;;;;;;;5044033;28;19921;-62
2024/03/11 06:51:04;;;;;;;;;;;;;;;;;;5049671;28;20019;-62
2024/03/11 06:53:30;;;;;;;;;;;;;;;;;;5043189;28;20286;-62
2024/03/11 06:55:56;;;;;;;;;;;;;;;;;;5047561;28;20020;-62
2024/03/11 06:58:22;;;;;;;;;;;;;;;;;;5049369;28;19925;-62
2024/03/11 07:00:48;;;;;;;;;;;;;;;;;;5042315;28;19924;-62
2024/03/11 07:03:15;;;;;;;;;;;;;;;;;;5045648;28;19921;-62
2024/03/11 07:05:41;;;;;;;;;;;;;;;;;;5047598;28;19968;-62
2024/03/11 07:08:09;;;;;;;;;;;;;;;;;;5048173;28;19968;-62
2024/03/11 07:10:34;;;;;;;;;;;;;;;;;;5045836;28;19928;-62
2024/03/11 07:13:01;;;;;;;;;;;;;;;;;;5050709;28;19921;-62
2024/03/11 07:15:28;;;;;;;;;;;;;;;;;;5048274;28;20294;-62
2024/03/11 07:17:54;;;;;;;;;;;;;;;;;;5046711;28;20355;-62
2024/03/11 07:20:23;;;;;;;;;;;;;;;;;;5050951;28;19972;-62
2024/03/11 07:22:49;;;;;;;;;;;;;;;;;;5049700;28;20008;-62
2024/03/11 07:25:17;;;;;;;;;;;;;;;;;;5047599;28;20382;-62
2024/03/11 07:27:47;;;;;;;;;;;;;;;;;;5048752;28;20443;-62
2024/03/11 07:30:13;;;;;;;;;;;;;;;;;;5048205;28;20419;-62
2024/03/11 07:32:39;;;;;;;;;;;;;;;;;;5051065;28;19958;-62
2024/03/11 07:35:05;;;;;;;;;;;;;;;;;;5048496;28;19978;-62
2024/03/11 07:37:36;;;;;;;;;;;;;;;;;;5035629;28;20184;-62
2024/03/11 07:40:02;;;;;;;;;;;;;;;;;;5052925;28;20007;-62
2024/03/11 07:42:29;;;;;;;;;;;;;;;;;;5054145;28;19928;-62
2024/03/11 07:44:55;;;;;;;;;;;;;;;;;;5054281;28;19928;-61
2024/03/11 07:47:22;;;;;;;;;;;;;;;;;;5050540;28;19925;-61
2024/03/11 07:49:48;;;;;;;;;;;;;;;;;;5054073;28;20019;-62
2024/03/11 07:52:14;;;;;;;;;;;;;;;;;;5053946;28;20011;-62
2024/03/11 07:54:40;;;;;;;;;;;;;;;;;;5052184;28;19999;-62
2024/03/11 07:57:06;;;;;;;;;;;;;;;;;;5019288;28;917515;-61
2024/03/11 07:59:33;;;;;;;;;;;;;;;;;;5050712;28;19943;-62
2024/03/11 08:01:58;;;;;;;;;;;;;;;;;;5053606;28;19994;-61
2024/03/11 08:04:24;;;;;;;;;;;;;;;;;;5046633;28;20369;-61
2024/03/11 08:06:52;;;;;;;;;;;;;;;;;;5054046;28;19925;-62
2024/03/11 08:09:18;;;;;;;;;;;;;;;;;;5053102;28;19928;-62
2024/03/11 08:11:44;;;;;;;;;;;;;;;;;;5054753;28;19920;-62
2024/03/11 08:14:10;;;;;;;;;;;;;;;;;;5054653;28;19925;-62
2024/03/11 08:16:37;;;;;;;;;;;;;;;;;;5046508;28;19974;-62
2024/03/11 08:19:03;;;;;;;;;;;;;;;;;;5049389;28;19920;-62
2024/03/11 08:21:29;;;;;;;;;;;;;;;;;;5052880;28;20046;-61
2024/03/11 08:23:54;;;;;;;;;;;;;;;;;;5052932;28;19921;-62
2024/03/11 08:26:20;;;;;;;;;;;;;;;;;;5052975;28;20321;-62
2024/03/11 08:28:46;;;;;;;;;;;;;;;;;;5051221;28;20350;-61
2024/03/11 08:31:12;;;;;;;;;;;;;;;;;;5051582;28;19947;-61
2024/03/11 08:33:38;;;;;;;;;;;;;;;;;;5044908;28;19981;-62
2024/03/11 08:36:04;;;;;;;;;;;;;;;;;;5052651;28;19921;-62
2024/03/11 08:38:30;;;;;;;;;;;;;;;;;;5051798;28;20023;-62
2024/03/11 08:40:56;;;;;;;;;;;;;;;;;;5050671;28;19924;-62
2024/03/11 08:43:22;;;;;;;;;;;;;;;;;;5051169;28;19921;-62
2024/03/11 08:45:48;;;;;;;;;;;;;;;;;;5044813;28;19921;-63
2024/03/11 08:48:14;;;;;;;;;;;;;;;;;;5051720;28;19928;-63
2024/03/11 08:50:40;;;;;;;;;;;;;;;;;;5045990;28;19921;-63
2024/03/11 08:53:06;;;;;;;;;;;;;;;;;;5043358;28;20259;-62
2024/03/11 08:55:34;;;;;;;;;;;;;;;;;;5041298;28;20284;-63
2024/03/11 08:58:00;;;;;;;;;;;;;;;;;;5049758;28;19952;-63
2024/03/11 09:00:27;;;;;;;;;;;;;;;;;;5043772;28;20305;-63
2024/03/11 09:02:54;;;;;;;;;;;;;;;;;;5044614;28;19920;-61
2024/03/11 09:05:22;;;;;;;;;;;;;;;;;;5050728;28;20000;-61
2024/03/11 09:07:48;;;;;;;;;;;;;;;;;;5046956;28;20271;-62
2024/03/11 09:10:14;;;;;;;;;;;;;;;;;;5050264;28;19936;-62
2024/03/11 09:12:40;;;;;;;;;;;;;;;;;;5056037;28;19928;-62
2024/03/11 09:15:12;;;;;;;;;;;;;;;;;;5051757;28;20333;-62
2024/03/11 09:17:39;;;;;;;;;;;;;;;;;;5047093;28;19921;-62
2024/03/11 09:20:05;;;;;;;;;;;;;;;;;;5054326;28;19932;-62
2024/03/11 09:22:33;;;;;;;;;;;;;;;;;;5055095;28;20282;-63
2024/03/11 09:24:59;;;;;;;;;;;;;;;;;;5053410;28;20358;-63
2024/03/11 09:27:26;;;;;;;;;;;;;;;;;;5052855;28;19928;-63
2024/03/11 09:29:52;;;;;;;;;;;;;;;;;;5049050;28;20382;-60
2024/03/11 09:32:18;;;;;;;;;;;;;;;;;;5049083;28;19959;-62
2024/03/11 09:34:45;;;;;;;;;;;;;;;;;;5052606;28;19963;-63
2024/03/11 09:37:11;;;;;;;;;;;;;;;;;;5052762;28;19928;-63
2024/03/11 09:39:37;;;;;;;;;;;;;;;;;;5047197;28;19924;-63
2024/03/11 09:42:06;;;;;;;;;;;;;;;;;;5049726;28;19999;-63
2024/03/11 09:44:32;;;;;;;;;;;;;;;;;;5046959;28;19928;-63
2024/03/11 09:47:00;;;;;;;;;;;;;;;;;;5045495;28;19983;-63
2024/03/11 09:49:26;;;;;;;;;;;;;;;;;;5046518;28;20384;-63
2024/03/11 09:51:53;;;;;;;;;;;;;;;;;;5042007;28;19929;-61
2024/03/11 09:54:19;;;;;;;;;;;;;;;;;;5050168;28;20448;-61
2024/03/11 09:56:45;;;;;;;;;;;;;;;;;;5045156;28;19936;-61
2024/03/11 09:59:12;;;;;;;;;;;;;;;;;;5047353;28;19921;-62
2024/03/11 10:01:37;;;;;;;;;;;;;;;;;;5051361;28;19929;-63
2024/03/11 10:04:05;;;;;;;;;;;;;;;;;;5046554;28;20016;-61
2024/03/11 10:06:33;;;;;;;;;;;;;;;;;;5051417;28;19948;-61
2024/03/11 10:08:59;;;;;;;;;;;;;;;;;;5050439;28;19959;-61
2024/03/11 10:11:28;;;;;;;;;;;;;;;;;;5052724;28;20294;-61
2024/03/11 10:13:56;;;;;;;;;;;;;;;;;;5052288;28;19925;-61
2024/03/11 10:16:24;;;;;;;;;;;;;;;;;;5050811;28;19921;-61
2024/03/11 10:18:52;;;;;;;;;;;;;;;;;;5051366;28;19963;-62
2024/03/11 10:21:19;;;;;;;;;;;;;;;;;;5051101;28;20412;-62
2024/03/11 10:23:45;;;;;;;;;;;;;;;;;;5048479;28;20020;-62
2024/03/11 10:26:17;;;;;;;;;;;;;;;;;;5050297;28;19929;-62
2024/03/11 10:28:44;;;;;;;;;;;;;;;;;;5051670;28;19973;-62
2024/03/11 10:31:10;;;;;;;;;;;;;;;;;;5044809;28;19921;-61
2024/03/11 10:33:39;;;;;;;;;;;;;;;;;;5050456;28;19932;-62
2024/03/11 10:36:06;;;;;;;;;;;;;;;;;;5048305;28;20305;-62
2024/03/11 10:38:32;;;;;;;;;;;;;;;;;;5050170;28;19921;-62
2024/03/11 10:40:58;;;;;;;;;;;;;;;;;;5074718;22;19932;-64
2024/03/11 10:43:25;;;;;;;;;;;;;;;;;;5065397;28;19929;-64
2024/03/11 10:45:51;;;;;;;;;;;;;;;;;;5068870;28;19928;-65
2024/03/11 10:48:17;;;;;;;;;;;;;;;;;;5068243;28;19928;-65
2024/03/11 10:50:43;;;;;;;;;;;;;;;;;;5066771;28;20054;-65
2024/03/11 10:53:09;;;;;;;;;;;;;;;;;;5065852;28;20007;-65
2024/03/11 10:55:35;;;;;;;;;;;;;;;;;;5069376;28;20102;-64
2024/03/11 10:58:01;;;;;;;;;;;;;;;;;;5066196;28;20640;-64
2024/03/11 11:00:33;;;;;;;;;;;;;;;;;;5060316;28;20554;-64
2024/03/11 11:02:59;;;;;;;;;;;;;;;;;;5062258;28;19920;-64
2024/03/11 11:05:32;;;;;;;;;;;;;;;;;;5065354;28;20140;-65
2024/03/11 11:07:59;;;;;;;;;;;;;;;;;;5062143;28;19920;-65
2024/03/11 11:10:29;;;;;;;;;;;;;;;;;;5062299;28;19933;-64
2024/03/11 11:12:55;;;;;;;;;;;;;;;;;;5070271;28;19921;-65
2024/03/11 11:15:21;;;;;;;;;;;;;;;;;;5072884;28;19927;-64
2024/03/11 11:17:48;;;;;;;;;;;;;;;;;;5050975;28;19931;-65
2024/03/11 11:23:19;;;;;;;;;;;;;;;;;;4988699;28;19988;-65
2024/03/11 11:25:46;;;;;;;;;;;;;;;;;;5007756;28;19921;-65
2024/03/11 11:28:14;;;;;;;;;;;;;;;;;;5037821;28;19927;-65
2024/03/11 11:30:41;;;;;;;;;;;;;;;;;;5071100;28;20409;-65
2024/03/11 11:33:06;;;;;;;;;;;;;;;;;;5069743;28;20326;-65
2024/03/11 11:35:32;;;;;;;;;;;;;;;;;;5073374;28;20001;-65
2024/03/11 11:37:58;;;;;;;;;;;;;;;;;;5068781;28;20015;-65
2024/03/11 11:40:24;;;;;;;;;;;;;;;;;;5066407;28;19925;-65
2024/03/11 11:42:50;;;;;;;;;;;;;;;;;;5073730;28;19970;-65
2024/03/11 11:45:17;;;;;;;;;;;;;;;;;;5061984;28;19925;-65
2024/03/11 11:47:43;;;;;;;;;;;;;;;;;;5072417;28;19920;-65
2024/03/11 11:50:09;;;;;;;;;;;;;;;;;;5067220;28;20035;-65
2024/03/11 11:52:35;;;;;;;;;;;;;;;;;;5070496;28;20387;-65
2024/03/11 11:55:04;;;;;;;;;;;;;;;;;;5072223;28;20015;-65
2024/03/11 11:57:30;;;;;;;;;;;;;;;;;;5062990;28;19928;-65
2024/03/11 11:59:55;;;;;;;;;;;;;;;;;;5068969;28;19948;-65
2024/03/11 12:02:21;;;;;;;;;;;;;;;;;;5064842;28;19924;-65
2024/03/11 12:04:48;;;;;;;;;;;;;;;;;;5069330;28;19960;-65
2024/03/11 12:07:14;;;;;;;;;;;;;;;;;;5068177;28;19960;-65
2024/03/11 12:09:40;;;;;;;;;;;;;;;;;;5072442;28;19964;-65
2024/03/11 12:12:06;;;;;;;;;;;;;;;;;;5071970;28;19964;-65
2024/03/11 12:14:32;;;;;;;;;;;;;;;;;;5064944;28;19983;-65
2024/03/11 12:16:57;;;;;;;;;;;;;;;;;;5063701;28;21111;-65
2024/03/11 12:19:26;;;;;;;;;;;;;;;;;;5069575;28;19927;-65
2024/03/11 12:21:53;;;;;;;;;;;;;;;;;;5065184;28;19982;-65
2024/03/11 12:24:21;;;;;;;;;;;;;;;;;;5070309;28;20293;-66
2024/03/11 12:26:47;;;;;;;;;;;;;;;;;;5060601;28;19929;-65
2024/03/11 12:29:13;;;;;;;;;;;;;;;;;;5083053;28;19925;-65
2024/03/11 12:31:39;;;;;;;;;;;;;;;;;;5067949;28;20681;-65
2024/03/11 12:34:08;;;;;;;;;;;;;;;;;;5079132;28;20008;-66
2024/03/11 12:36:35;;;;;;;;;;;;;;;;;;5072856;28;19974;-65
2024/03/11 12:39:02;;;;;;;;;;;;;;;;;;5063805;28;19924;-65
2024/03/11 12:41:28;;;;;;;;;;;;;;;;;;5080534;28;19974;-65
2024/03/11 12:43:54;;;;;;;;;;;;;;;;;;5058823;28;19928;-65
2024/03/11 12:46:20;;;;;;;;;;;;;;;;;;5061567;28;20018;-67
2024/03/11 12:48:48;;;;;;;;;;;;;;;;;;5072165;28;20444;-65
2024/03/11 12:51:13;;;;;;;;;;;;;;;;;;5067851;28;19956;-65
2024/03/11 12:53:39;;;;;;;;;;;;;;;;;;5077624;28;19951;-65
2024/03/11 12:56:07;;;;;;;;;;;;;;;;;;5067228;28;20999;-65
2024/03/11 12:58:37;;;;;;;;;;;;;;;;;;5063618;28;19973;-65
2024/03/11 13:01:04;;;;;;;;;;;;;;;;;;5059518;28;19936;-65
2024/03/11 13:03:31;;;;;;;;;;;;;;;;;;5064709;28;19928;-65
2024/03/11 13:06:00;;;;;;;;;;;;;;;;;;5068010;28;19927;-65
2024/03/11 13:08:26;;;;;;;;;;;;;;;;;;5066585;28;20305;-65
2024/03/11 13:10:52;;;;;;;;;;;;;;;;;;5054743;28;19921;-65
2024/03/11 13:13:19;;;;;;;;;;;;;;;;;;5061185;28;19928;-65
2024/03/11 13:15:46;;;;;;;;;;;;;;;;;;5063084;28;19936;-65
2024/03/11 13:18:12;;;;;;;;;;;;;;;;;;5073119;28;20011;-65
2024/03/11 13:20:38;;;;;;;;;;;;;;;;;;5064010;28;20007;-65
2024/03/11 13:23:06;;;;;;;;;;;;;;;;;;5068426;28;20054;-65
2024/03/11 13:25:32;;;;;;;;;;;;;;;;;;5070566;28;19964;-65
2024/03/11 13:27:58;;;;;;;;;;;;;;;;;;5068001;28;20015;-65
2024/03/11 13:30:24;;;;;;;;;;;;;;;;;;5081657;28;20555;-66
2024/03/11 13:32:50;;;;;;;;;;;;;;;;;;5083018;28;20026;-66
2024/03/11 13:35:16;;;;;;;;;;;;;;;;;;5059621;28;20278;-66
2024/03/11 13:37:42;;;;;;;;;;;;;;;;;;5062313;28;19940;-66
2024/03/11 13:40:08;;;;;;;;;;;;;;;;;;5070931;28;19924;-66
2024/03/11 13:42:36;;;;;;;;;;;;;;;;;;5071110;28;19978;-66
2024/03/11 13:45:02;;;;;;;;;;;;;;;;;;5071177;28;19920;-66
2024/03/11 13:47:29;;;;;;;;;;;;;;;;;;5058635;28;19925;-66
2024/03/11 13:49:55;;;;;;;;;;;;;;;;;;5054712;28;20015;-66
2024/03/11 13:52:20;;;;;;;;;;;;;;;;;;5063412;28;20719;-66
2024/03/11 13:54:47;;;;;;;;;;;;;;;;;;5074875;28;20023;-66
2024/03/11 13:57:13;;;;;;;;;;;;;;;;;;5055447;28;20389;-66
2024/03/11 13:59:39;;;;;;;;;;;;;;;;;;5067955;28;19924;-65
2024/03/11 14:02:05;;;;;;;;;;;;;;;;;;5064866;28;19924;-66
2024/03/11 14:04:31;;;;;;;;;;;;;;;;;;5069796;28;19963;-66
2024/03/11 14:06:58;;;;;;;;;;;;;;;;;;5056344;28;20370;-66
2024/03/11 14:09:25;;;;;;;;;;;;;;;;;;5059809;28;20374;-66
2024/03/11 14:11:52;;;;;;;;;;;;;;;;;;5049338;28;19924;-66
2024/03/11 14:14:18;;;;;;;;;;;;;;;;;;5065850;28;20629;-66
2024/03/11 14:16:45;;;;;;;;;;;;;;;;;;5065836;28;19975;-66
2024/03/11 14:19:10;;;;;;;;;;;;;;;;;;5047868;28;19950;-66
2024/03/11 14:21:39;;;;;;;;;;;;;;;;;;5065029;28;20029;-66
2024/03/11 14:24:08;;;;;;;;;;;;;;;;;;5062201;28;19920;-66
2024/03/11 14:26:34;;;;;;;;;;;;;;;;;;5064715;28;19999;-66
2024/03/11 14:29:01;;;;;;;;;;;;;;;;;;5068626;28;20008;-66
2024/03/11 14:31:27;;;;;;;;;;;;;;;;;;5063778;28;19925;-66
2024/03/11 14:33:53;;;;;;;;;;;;;;;;;;5065199;28;20282;-66
2024/03/11 14:36:19;;;;;;;;;;;;;;;;;;5056071;28;19920;-66
2024/03/11 14:38:46;;;;;;;;;;;;;;;;;;5046069;28;19920;-66
2024/03/11 14:41:12;;;;;;;;;;;;;;;;;;5065037;28;20450;-65
2024/03/11 14:43:37;;;;;;;;;;;;;;;;;;5062099;28;19929;-65
2024/03/11 14:46:03;;;;;;;;;;;;;;;;;;5067053;28;19947;-65
2024/03/11 14:48:32;;;;;;;;;;;;;;;;;;5075137;28;19931;-66
2024/03/11 14:50:58;;;;;;;;;;;;;;;;;;5065549;28;19940;-65
2024/03/11 14:53:28;;;;;;;;;;;;;;;;;;5069471;28;19946;-66
2024/03/11 14:55:54;;;;;;;;;;;;;;;;;;5071130;28;20709;-66
2024/03/11 14:58:20;;;;;;;;;;;;;;;;;;5062101;28;19967;-66
2024/03/11 15:00:46;;;;;;;;;;;;;;;;;;5071420;28;19931;-66
2024/03/11 15:03:13;;;;;;;;;;;;;;;;;;5070222;28;20465;-66
2024/03/11 15:05:43;;;;;;;;;;;;;;;;;;5069983;28;19935;-66
2024/03/11 15:08:09;;;;;;;;;;;;;;;;;;5073124;28;20042;-66
2024/03/11 15:10:36;;;;;;;;;;;;;;;;;;5067350;28;20268;-66
2024/03/11 15:13:02;;;;;;;;;;;;;;;;;;5073964;28;20474;-66
2024/03/11 15:15:29;;;;;;;;;;;;;;;;;;5067215;28;20271;-66
2024/03/11 15:17:56;;;;;;;;;;;;;;;;;;5070389;28;20622;-66
2024/03/11 15:20:22;;;;;;;;;;;;;;;;;;5061824;28;19924;-66
2024/03/11 15:22:48;;;;;;;;;;;;;;;;;;5074250;28;19952;-66
2024/03/11 15:25:16;;;;;;;;;;;;;;;;;;5071879;28;20417;-66
2024/03/11 15:27:42;;;;;;;;;;;;;;;;;;5063382;28;20330;-66
2024/03/11 15:30:10;;;;;;;;;;;;;;;;;;5070142;28;19970;-66
2024/03/11 15:32:36;;;;;;;;;;;;;;;;;;5062808;28;19929;-66
2024/03/11 15:35:02;;;;;;;;;;;;;;;;;;5067088;28;20325;-66
2024/03/11 15:37:28;;;;;;;;;;;;;;;;;;5069284;28;19925;-65
2024/03/11 15:39:54;;;;;;;;;;;;;;;;;;5072698;28;19928;-66
2024/03/11 15:42:21;;;;;;;;;;;;;;;;;;5058352;28;19936;-65
2024/03/11 15:44:47;;;;;;;;;;;;;;;;;;5069795;28;19971;-65
2024/03/11 15:47:14;;;;;;;;;;;;;;;;;;5068360;28;19956;-66
2024/03/11 15:49:41;;;;;;;;;;;;;;;;;;5063270;28;19924;-66
2024/03/11 15:52:07;;;;;;;;;;;;;;;;;;5072532;28;19947;-65
2024/03/11 15:54:33;;;;;;;;;;;;;;;;;;5070397;28;19936;-66
2024/03/11 15:57:01;;;;;;;;;;;;;;;;;;5072227;28;19978;-66
2024/03/11 15:59:27;;;;;;;;;;;;;;;;;;5072913;28;19921;-65
2024/03/11 16:01:56;;;;;;;;;;;;;;;;;;5071275;28;19924;-66
2024/03/11 16:04:22;;;;;;;;;;;;;;;;;;5072181;28;20322;-66
2024/03/11 16:06:48;;;;;;;;;;;;;;;;;;5071576;28;20418;-65
2024/03/11 16:09:31;;;;;;;;;;;;;;;;;;5072559;28;19971;-66
2024/03/11 16:11:57;;;;;;;;;;;;;;;;;;5068609;28;20381;-66
2024/03/11 16:14:23;;;;;;;;;;;;;;;;;;5072217;28;19925;-66
2024/03/11 16:16:49;;;;;;;;;;;;;;;;;;5068945;28;19966;-66
2024/03/11 16:19:16;;;;;;;;;;;;;;;;;;5070550;28;19928;-66
2024/03/11 16:21:43;;;;;;;;;;;;;;;;;;5073399;28;19920;-66
2024/03/11 16:24:09;;;;;;;;;;;;;;;;;;5049130;28;20038;-66
2024/03/11 16:26:35;;;;;;;;;;;;;;;;;;5072834;28;19967;-66
2024/03/11 16:29:03;;;;;;;;;;;;;;;;;;5071233;28;19959;-66
2024/03/11 16:31:30;;;;;;;;;;;;;;;;;;5055934;28;20281;-65
2024/03/11 16:33:56;;;;;;;;;;;;;;;;;;5069599;28;19978;-64
2024/03/11 16:36:21;;;;;;;;;;;;;;;;;;5063903;28;19932;-64
2024/03/11 16:38:47;;;;;;;;;;;;;;;;;;5056191;28;19920;-65
2024/03/11 16:41:13;;;;;;;;;;;;;;;;;;5068977;28;20381;-65
2024/03/11 16:43:39;;;;;;;;;;;;;;;;;;5069226;28;19929;-64